createdAt,value
2023-05-19T00:02:23.413Z,94634.56
2023-05-19T00:04:50.109Z,94632.19
2023-05-19T00:07:20.433Z,94632.19
2023-05-19T00:09:47.265Z,94632.97
2023-05-19T00:12:14.123Z,94628.66
2023-05-19T00:14:41.012Z,94617.31
2023-05-19T00:17:08.113Z,94620.47
2023-05-19T00:19:34.666Z,94624.34
2023-05-19T00:22:01.199Z,94621.19
2023-05-19T00:24:27.835Z,94620.44
2023-05-19T00:26:54.479Z,94623.19
2023-05-19T00:29:21.044Z,94622.41
2023-05-19T00:31:47.932Z,94621.66
2023-05-19T00:34:14.545Z,94620.88
2023-05-19T00:36:41.212Z,94632.19
2023-05-19T00:39:07.799Z,94630.22
2023-05-19T00:41:35.303Z,94625.91
2023-05-19T00:44:02.015Z,94619.66
2023-05-19T00:46:30.305Z,94615.75
2023-05-19T00:48:57.034Z,94611.41
2023-05-19T00:51:27.239Z,94614.91
2023-05-19T00:53:54.182Z,94612.88
2023-05-19T00:56:21.762Z,94612.09
2023-05-19T00:58:50.899Z,94614.44
2023-05-19T01:01:17.748Z,94610.91
2023-05-19T01:03:45.109Z,94606.25
2023-05-19T01:06:12.247Z,94605.44
2023-05-19T01:08:39.464Z,94612.84
2023-05-19T01:11:07.596Z,94605.84
2023-05-19T01:13:36.135Z,94606.94
2023-05-19T01:16:09.888Z,94602.25
2023-05-19T01:19:18.134Z,94600.69
2023-05-19T01:22:03.301Z,94605.38
2023-05-19T01:25:07.056Z,94604.63
2023-05-19T01:27:39.454Z,94605.38
2023-05-19T01:30:25.314Z,94604.63
2023-05-19T01:32:54.673Z,94606.53
2023-05-19T01:35:26.041Z,94605.75
2023-05-19T01:37:57.457Z,94605.75
2023-05-19T01:40:25.635Z,94599.16
2023-05-19T01:42:57.796Z,94595.25
2023-05-19T01:45:28.219Z,94594.00
2023-05-19T01:47:57.649Z,94588.94
2023-05-19T01:50:24.604Z,94588.19
2023-05-19T01:52:52.173Z,94594.41
2023-05-19T01:55:19.574Z,94594.81
2023-05-19T01:58:00.690Z,94599.47
2023-05-19T02:00:42.331Z,94585.47
2023-05-19T02:03:33.842Z,94586.59
2023-05-19T02:06:18.443Z,94581.50
2023-05-19T02:08:54.019Z,94583.09
2023-05-19T02:11:32.272Z,94583.84
2023-05-19T02:14:03.423Z,94580.72
2023-05-19T02:16:30.399Z,94586.56
2023-05-19T02:18:57.374Z,94588.88
2023-05-19T02:21:24.092Z,94592.00
2023-05-19T02:23:50.726Z,94579.88
2023-05-19T02:26:19.755Z,94590.81
2023-05-19T02:28:46.353Z,94586.88
2023-05-19T02:31:12.917Z,94588.44
2023-05-19T02:33:39.518Z,94600.50
2023-05-19T02:36:06.428Z,94586.00
2023-05-19T02:38:33.020Z,94586.75
2023-05-19T02:40:59.621Z,94590.25
2023-05-19T02:43:26.203Z,94585.88
2023-05-19T02:45:52.848Z,94585.91
2023-05-19T02:48:19.592Z,94586.75
2023-05-19T02:50:46.652Z,94582.03
2023-05-19T02:53:13.332Z,94579.69
2023-05-19T02:55:40.017Z,94588.22
2023-05-19T02:58:06.601Z,94580.00
2023-05-19T03:00:33.389Z,94583.91
2023-05-19T03:03:02.712Z,94584.72
2023-05-19T03:05:30.408Z,94589.00
2023-05-19T03:07:57.142Z,94581.13
2023-05-19T03:10:23.832Z,94576.44
2023-05-19T03:12:50.965Z,94583.81
2023-05-19T03:15:18.765Z,94583.88
2023-05-19T03:17:45.620Z,94584.25
2023-05-19T03:20:12.575Z,94573.38
2023-05-19T03:22:39.229Z,94583.50
2023-05-19T03:25:06.032Z,94578.34
2023-05-19T03:27:32.936Z,94585.78
2023-05-19T03:29:59.568Z,94585.38
2023-05-19T03:32:26.715Z,94583.47
2023-05-19T03:34:53.396Z,94583.00
2023-05-19T03:37:20.301Z,94582.56
2023-05-19T03:39:46.894Z,94585.03
2023-05-19T03:42:13.759Z,94579.16
2023-05-19T03:44:40.517Z,94587.31
2023-05-19T03:47:07.332Z,94584.63
2023-05-19T03:49:36.685Z,94584.63
2023-05-19T03:52:38.634Z,94590.47
2023-05-19T03:55:20.246Z,94590.47
2023-05-19T03:57:47.304Z,94598.22
2023-05-19T04:00:14.576Z,94593.94
2023-05-19T04:02:41.290Z,94601.78
2023-05-19T04:05:08.548Z,94592.09
2023-05-19T04:07:37.130Z,94596.78
2023-05-19T04:10:05.586Z,94599.16
2023-05-19T04:12:33.025Z,94597.56
2023-05-19T04:14:59.797Z,94602.28
2023-05-19T04:17:27.317Z,94602.72
2023-05-19T04:19:55.242Z,94604.63
2023-05-19T04:22:22.452Z,94610.94
2023-05-19T04:24:50.484Z,94598.09
2023-05-19T04:27:18.228Z,94598.91
2023-05-19T04:29:46.114Z,94600.00
2023-05-19T04:32:17.429Z,94596.94
2023-05-19T04:34:45.978Z,94593.47
2023-05-19T04:37:17.960Z,94599.69
2023-05-19T04:39:45.461Z,94600.06
2023-05-19T04:42:19.245Z,94601.22
2023-05-19T04:44:49.210Z,94600.91
2023-05-19T04:47:16.238Z,94603.66
2023-05-19T04:49:43.124Z,94589.97
2023-05-19T04:52:11.114Z,94597.88
2023-05-19T04:54:39.445Z,94600.59
2023-05-19T04:57:06.989Z,94597.81
2023-05-19T04:59:37.284Z,94602.16
2023-05-19T05:02:06.343Z,94595.53
2023-05-19T05:04:34.228Z,94600.31
2023-05-19T05:07:01.271Z,94607.75
2023-05-19T05:09:28.925Z,94593.31
2023-05-19T05:11:58.742Z,94597.63
2023-05-19T05:14:26.159Z,94587.88
2023-05-19T05:16:53.505Z,94591.47
2023-05-19T05:19:23.653Z,94587.94
2023-05-19T05:21:51.554Z,94600.50
2023-05-19T05:24:19.879Z,94593.53
2023-05-19T05:26:53.275Z,94593.91
2023-05-19T05:29:21.193Z,94586.91
2023-05-19T05:31:48.050Z,94590.84
2023-05-19T05:34:14.814Z,94590.44
2023-05-19T05:36:42.620Z,94590.31
2023-05-19T05:39:09.680Z,94598.03
2023-05-19T05:41:37.903Z,94592.59
2023-05-19T05:44:10.261Z,94587.91
2023-05-19T05:46:39.497Z,94593.06
2023-05-19T05:49:06.478Z,94603.59
2023-05-19T05:51:33.760Z,94603.56
2023-05-19T05:54:02.089Z,94597.69
2023-05-19T05:56:37.329Z,94601.25
2023-05-19T05:59:05.935Z,94597.00
2023-05-19T06:01:34.288Z,94597.84
2023-05-19T06:04:03.678Z,94599.81
2023-05-19T06:06:31.567Z,94586.53
2023-05-19T06:08:59.399Z,94593.59
2023-05-19T06:11:28.791Z,94587.34
2023-05-19T06:13:58.018Z,94585.03
2023-05-19T06:16:48.229Z,94584.63
2023-05-19T06:19:16.414Z,94592.09
2023-05-19T06:21:43.779Z,94578.81
2023-05-19T06:24:11.354Z,94576.84
2023-05-19T06:26:38.261Z,94574.91
2023-05-19T06:29:04.930Z,94571.75
2023-05-19T06:31:33.417Z,94580.38
2023-05-19T06:34:12.187Z,94572.91
2023-05-19T06:36:41.319Z,94570.19
2023-05-19T06:39:08.249Z,94572.94
2023-05-19T06:41:35.829Z,94586.22
2023-05-19T06:44:04.160Z,94588.97
2023-05-19T06:46:33.166Z,94583.13
2023-05-19T06:49:00.122Z,94592.91
2023-05-19T06:51:30.084Z,94579.22
2023-05-19T06:53:57.039Z,94584.28
2023-05-19T06:56:24.216Z,94585.06
2023-05-19T06:58:51.203Z,94579.97
2023-05-19T07:01:19.833Z,94583.88
2023-05-19T07:03:53.031Z,94587.81
2023-05-19T07:06:20.978Z,94586.63
2023-05-19T07:08:48.284Z,94587.44
2023-05-19T07:11:15.305Z,94590.53
2023-05-19T07:13:43.033Z,94593.69
2023-05-19T07:16:10.647Z,94584.28
2023-05-19T07:18:37.703Z,94590.16
2023-05-19T07:21:07.508Z,94590.16
2023-05-19T07:23:34.248Z,94592.91
2023-05-19T07:26:01.156Z,94596.03
2023-05-19T07:28:27.754Z,94598.78
2023-05-19T07:30:56.603Z,94593.66
2023-05-19T07:33:23.495Z,94596.78
2023-05-19T07:35:54.397Z,94603.06
2023-05-19T07:38:21.433Z,94589.75
2023-05-19T07:40:48.085Z,94595.16
2023-05-19T07:43:14.697Z,94581.88
2023-05-19T07:45:41.528Z,94586.13
2023-05-19T07:48:08.474Z,94586.44
2023-05-19T07:50:35.144Z,94574.75
2023-05-19T07:53:02.215Z,94572.03
2023-05-19T07:55:28.833Z,94575.06
2023-05-19T07:57:56.174Z,94570.94
2023-05-19T08:00:22.810Z,94578.78
2023-05-19T08:02:49.429Z,94571.72
2023-05-19T08:05:16.112Z,94564.25
2023-05-19T08:07:42.720Z,94567.63
2023-05-19T08:10:09.435Z,94573.50
2023-05-19T08:12:36.113Z,94579.03
2023-05-19T08:15:02.752Z,94571.66
2023-05-19T08:17:29.445Z,94578.94
2023-05-19T08:19:56.192Z,94557.22
2023-05-19T08:22:22.934Z,94558.56
2023-05-19T08:24:51.746Z,94555.19
2023-05-19T08:27:18.445Z,94555.41
2023-05-19T08:29:45.311Z,94545.75
2023-05-19T08:32:13.379Z,94543.53
2023-05-19T08:34:41.192Z,94550.91
2023-05-19T08:37:08.020Z,94544.44
2023-05-19T08:39:34.930Z,94549.94
2023-05-19T08:42:02.441Z,94554.00
2023-05-19T08:44:30.812Z,94549.50
2023-05-19T08:47:02.646Z,94553.31
2023-05-19T08:49:33.241Z,94549.16
2023-05-19T08:52:19.507Z,94548.91
2023-05-19T08:54:53.229Z,94552.66
2023-05-19T08:57:21.372Z,94551.72
2023-05-19T08:59:49.381Z,94547.00
2023-05-19T09:02:16.640Z,94549.44
2023-05-19T09:04:46.113Z,94545.19
2023-05-19T09:07:14.835Z,94549.41
2023-05-19T09:09:44.576Z,94551.13
2023-05-19T09:12:11.706Z,94550.53
2023-05-19T09:14:38.493Z,94552.94
2023-05-19T09:17:05.961Z,94552.72
2023-05-19T09:19:32.936Z,94548.53
2023-05-19T09:22:01.243Z,94553.56
2023-05-19T09:24:28.400Z,94559.22
2023-05-19T09:27:00.488Z,94554.34
2023-05-19T09:29:27.205Z,94557.44
2023-05-19T09:32:00.517Z,94545.88
2023-05-19T09:34:27.754Z,94556.81
2023-05-19T09:36:54.547Z,94551.38
2023-05-19T09:39:22.809Z,94539.91
2023-05-19T09:41:54.279Z,94547.75
2023-05-19T09:44:21.146Z,94548.44
2023-05-19T09:46:49.592Z,94552.25
2023-05-19T09:49:25.689Z,94545.44
2023-05-19T09:51:56.694Z,94543.47
2023-05-19T09:54:24.912Z,94543.22
2023-05-19T09:57:03.578Z,94538.13
2023-05-19T09:59:33.557Z,94539.94
2023-05-19T10:02:01.452Z,94547.63
2023-05-19T10:04:29.949Z,94558.56
2023-05-19T10:06:59.640Z,94547.53
2023-05-19T10:09:28.165Z,94537.91
2023-05-19T10:11:56.643Z,94546.91
2023-05-19T10:14:24.887Z,94551.25
2023-05-19T10:16:52.968Z,94547.66
2023-05-19T10:19:24.423Z,94545.63
2023-05-19T10:21:51.608Z,94548.81
2023-05-19T10:24:18.995Z,94553.16
2023-05-19T10:26:49.539Z,94542.16
2023-05-19T10:29:21.137Z,94544.88
2023-05-19T10:31:47.808Z,94540.09
2023-05-19T10:34:37.477Z,94532.16
2023-05-19T10:37:17.189Z,94523.75
2023-05-19T10:39:44.827Z,94527.28
2023-05-19T10:42:17.369Z,94522.72
2023-05-19T10:45:16.977Z,94523.84
2023-05-19T10:47:44.204Z,94527.91
2023-05-19T10:50:11.178Z,94531.03
2023-05-19T10:52:39.538Z,94529.28
2023-05-19T10:55:17.771Z,94524.78
2023-05-19T10:57:56.793Z,94540.66
2023-05-19T11:00:27.981Z,94532.06
2023-05-19T11:02:57.876Z,94537.19
2023-05-19T11:05:30.501Z,94531.66
2023-05-19T11:08:05.756Z,94532.44
2023-05-19T11:10:32.624Z,94532.88
2023-05-19T11:12:59.435Z,94528.59
2023-05-19T11:15:30.475Z,94538.44
2023-05-19T11:17:57.466Z,94531.09
2023-05-19T11:20:26.412Z,94535.97
2023-05-19T11:23:18.524Z,94534.88
2023-05-19T11:25:47.606Z,94541.31
2023-05-19T11:28:20.136Z,94545.22
2023-05-19T11:30:52.565Z,94535.91
2023-05-19T11:33:20.639Z,94540.47
2023-05-19T11:35:51.443Z,94539.84
2023-05-19T11:38:19.433Z,94532.66
2023-05-19T11:40:47.736Z,94537.22
2023-05-19T11:43:14.435Z,94525.09
2023-05-19T11:45:41.608Z,94518.22
2023-05-19T11:48:12.483Z,94514.22
2023-05-19T11:50:41.509Z,94523.28
2023-05-19T11:53:08.224Z,94514.84
2023-05-19T11:55:34.864Z,94522.34
2023-05-19T11:58:05.418Z,94528.09
2023-05-19T12:00:39.001Z,94523.13
2023-05-19T12:03:06.268Z,94531.53
2023-05-19T12:05:39.941Z,94521.13
2023-05-19T12:08:08.975Z,94529.19
2023-05-19T12:10:35.843Z,94521.63
2023-05-19T12:13:03.169Z,94527.19
2023-05-19T12:15:31.689Z,94533.13
2023-05-19T12:18:00.672Z,94518.75
2023-05-19T12:20:29.055Z,94510.31
2023-05-19T12:22:56.395Z,94518.31
2023-05-19T12:25:23.828Z,94530.06
2023-05-19T12:27:52.715Z,94523.94
2023-05-19T12:30:26.301Z,94521.16
2023-05-19T12:32:54.250Z,94532.31
2023-05-19T12:35:23.274Z,94530.22
2023-05-19T12:37:50.696Z,94530.03
2023-05-19T12:40:17.549Z,94534.19
2023-05-19T12:42:48.762Z,94531.00
2023-05-19T12:45:15.365Z,94532.03
2023-05-19T12:47:42.067Z,94529.75
2023-05-19T12:50:10.218Z,94541.56
2023-05-19T12:52:45.758Z,94536.09
2023-05-19T12:55:13.957Z,94517.94
2023-05-19T12:57:42.839Z,94533.69
2023-05-19T13:00:20.967Z,94533.44
2023-05-19T13:02:56.801Z,94524.84
2023-05-19T13:05:24.043Z,94523.06
2023-05-19T13:07:55.574Z,94531.41
2023-05-19T13:10:22.251Z,94522.63
2023-05-19T13:12:48.865Z,94527.22
2023-05-19T13:15:15.566Z,94528.44
2023-05-19T13:17:42.859Z,94528.13
2023-05-19T13:20:10.011Z,94531.34
2023-05-19T13:22:36.622Z,94525.69
2023-05-19T13:25:03.240Z,94530.69
2023-05-19T13:27:30.004Z,94519.63
2023-05-19T13:29:56.670Z,94518.53
2023-05-19T13:32:24.174Z,94520.19
2023-05-19T13:34:50.799Z,94510.28
2023-05-19T13:37:17.486Z,94510.06
2023-05-19T13:39:44.117Z,94502.13
2023-05-19T13:42:10.681Z,94516.97
2023-05-19T13:44:37.558Z,94518.59
2023-05-19T13:47:04.494Z,94517.81
2023-05-19T13:49:31.212Z,94510.25
2023-05-19T13:51:58.355Z,94507.66
2023-05-19T13:54:25.063Z,94504.47
2023-05-19T13:56:51.816Z,94522.31
2023-05-19T13:59:18.615Z,94518.22
2023-05-19T14:01:45.515Z,94518.66
2023-05-19T14:04:12.415Z,94521.13
2023-05-19T14:06:41.118Z,94523.97
2023-05-19T14:09:07.859Z,94527.22
2023-05-19T14:11:34.440Z,94512.34
2023-05-19T14:14:03.337Z,94520.16
2023-05-19T14:16:30.538Z,94510.63
2023-05-19T14:18:57.306Z,94517.84
2023-05-19T14:21:24.713Z,94521.63
2023-05-19T14:23:51.869Z,94515.63
2023-05-19T14:26:19.657Z,94507.44
2023-05-19T14:28:46.260Z,94511.28
2023-05-19T14:31:13.874Z,94520.25
2023-05-19T14:33:41.536Z,94519.72
2023-05-19T14:36:09.152Z,94508.19
2023-05-19T14:38:36.151Z,94509.53
2023-05-19T14:41:03.268Z,94508.25
2023-05-19T14:43:29.860Z,94517.88
2023-05-19T14:45:57.008Z,94512.03
2023-05-19T14:48:23.625Z,94520.63
2023-05-19T14:50:50.581Z,94529.41
2023-05-19T14:53:17.566Z,94513.94
2023-05-19T14:55:44.264Z,94507.38
2023-05-19T14:58:26.700Z,94510.25
2023-05-19T15:00:54.001Z,94508.38
2023-05-19T15:03:20.713Z,94493.41
2023-05-19T15:05:47.617Z,94498.97
2023-05-19T15:08:14.450Z,94506.19
2023-05-19T15:10:41.154Z,94506.94
2023-05-19T15:13:07.741Z,94504.59
2023-05-19T15:15:35.454Z,94497.50
2023-05-19T15:18:02.146Z,94488.41
2023-05-19T15:20:29.616Z,94482.78
2023-05-19T15:22:56.413Z,94493.47
2023-05-19T15:25:23.054Z,94503.41
2023-05-19T15:27:49.709Z,94512.19
2023-05-19T15:30:17.791Z,94498.13
2023-05-19T15:32:45.147Z,94508.69
2023-05-19T15:35:11.787Z,94503.38
2023-05-19T15:37:38.412Z,94509.50
2023-05-19T15:40:06.093Z,94498.31
2023-05-19T15:42:32.917Z,94500.94
2023-05-19T15:44:59.542Z,94499.50
2023-05-19T15:47:26.189Z,94497.28
2023-05-19T15:49:52.797Z,94496.19
2023-05-19T15:52:19.418Z,94492.66
2023-05-19T15:54:46.704Z,94499.94
2023-05-19T15:57:13.568Z,94499.63
2023-05-19T15:59:40.229Z,94500.44
2023-05-19T16:02:08.145Z,94500.91
2023-05-19T16:04:35.155Z,94506.69
2023-05-19T16:07:01.791Z,94502.09
2023-05-19T16:09:28.373Z,94501.88
2023-05-19T16:11:55.069Z,94492.00
2023-05-19T16:14:21.803Z,94488.72
2023-05-19T16:16:48.494Z,94486.00
2023-05-19T16:19:15.280Z,94489.88
2023-05-19T16:21:41.906Z,94493.34
2023-05-19T16:24:08.483Z,94485.31
2023-05-19T16:26:35.170Z,94494.22
2023-05-19T16:29:01.781Z,94489.22
2023-05-19T16:31:28.498Z,94481.41
2023-05-19T16:33:55.352Z,94488.94
2023-05-19T16:36:22.834Z,94486.53
2023-05-19T16:38:49.599Z,94480.72
2023-05-19T16:41:16.268Z,94481.22
2023-05-19T16:43:42.992Z,94482.03
2023-05-19T16:46:12.103Z,94479.34
2023-05-19T16:48:38.905Z,94481.34
2023-05-19T16:51:05.673Z,94477.53
2023-05-19T16:53:32.582Z,94473.56
2023-05-19T16:55:59.327Z,94476.63
2023-05-19T16:58:26.566Z,94468.34
2023-05-19T17:00:54.482Z,94468.00
2023-05-19T17:03:21.367Z,94489.31
2023-05-19T17:05:48.305Z,94483.94
2023-05-19T17:08:14.909Z,94488.25
2023-05-19T17:10:41.547Z,94487.84
2023-05-19T17:13:08.159Z,94481.53
2023-05-19T17:15:35.036Z,94485.41
2023-05-19T17:18:01.696Z,94477.16
2023-05-19T17:20:28.657Z,94468.06
2023-05-19T17:22:55.458Z,94481.75
2023-05-19T17:25:22.092Z,94479.03
2023-05-19T17:27:48.741Z,94481.91
2023-05-19T17:30:16.275Z,94476.41
2023-05-19T17:32:43.007Z,94482.34
2023-05-19T17:35:10.095Z,94483.91
2023-05-19T17:37:37.182Z,94480.34
2023-05-19T17:40:04.205Z,94478.81
2023-05-19T17:42:31.710Z,94480.75
2023-05-19T17:44:58.523Z,94483.06
2023-05-19T17:47:25.241Z,94482.28
2023-05-19T17:49:53.061Z,94476.81
2023-05-19T17:52:20.603Z,94483.50
2023-05-19T17:54:47.653Z,94475.31
2023-05-19T17:57:15.950Z,94474.91
2023-05-19T17:59:46.310Z,94478.84
2023-05-19T18:02:15.157Z,94469.84
2023-05-19T18:04:42.403Z,94481.19
2023-05-19T18:07:09.353Z,94480.84
2023-05-19T18:09:43.520Z,94476.56
2023-05-19T18:12:10.052Z,94478.47
2023-05-19T18:14:36.667Z,94464.41
2023-05-19T18:17:03.605Z,94467.97
2023-05-19T18:19:30.375Z,94465.25
2023-05-19T18:21:56.997Z,94468.75
2023-05-19T18:24:23.665Z,94474.25
2023-05-19T18:26:50.442Z,94468.38
2023-05-19T18:29:17.085Z,94465.63
2023-05-19T18:31:46.206Z,94465.66
2023-05-19T18:34:14.036Z,94463.66
2023-05-19T18:36:44.045Z,94470.31
2023-05-19T18:39:10.806Z,94464.84
2023-05-19T18:41:42.671Z,94473.53
2023-05-19T18:44:12.234Z,94478.22
2023-05-19T18:46:39.094Z,94472.72
2023-05-19T18:49:05.754Z,94479.38
2023-05-19T18:51:34.502Z,94474.25
2023-05-19T18:54:01.111Z,94474.66
2023-05-19T18:56:31.092Z,94481.72
2023-05-19T18:58:58.175Z,94486.41
2023-05-19T19:01:25.137Z,94482.47
2023-05-19T19:03:51.905Z,94481.31
2023-05-19T19:06:20.643Z,94469.19
2023-05-19T19:08:47.419Z,94466.47
2023-05-19T19:11:14.188Z,94473.91
2023-05-19T19:13:43.932Z,94470.81
2023-05-19T19:16:11.047Z,94465.31
2023-05-19T19:18:37.870Z,94471.59
2023-05-19T19:21:05.743Z,94473.97
2023-05-19T19:23:32.808Z,94471.22
2023-05-19T19:25:59.500Z,94477.06
2023-05-19T19:28:26.469Z,94483.34
2023-05-19T19:30:56.143Z,94486.47
2023-05-19T19:33:22.788Z,94484.53
2023-05-19T19:35:49.420Z,94488.03
2023-05-19T19:38:16.168Z,94487.28
2023-05-19T19:40:42.851Z,94492.75
2023-05-19T19:43:09.592Z,94489.63
2023-05-19T19:45:39.115Z,94487.28
2023-05-19T19:48:07.308Z,94491.59
2023-05-19T19:50:34.533Z,94491.59
2023-05-19T19:53:01.540Z,94493.94
2023-05-19T19:55:32.192Z,94492.75
2023-05-19T19:57:58.791Z,94491.59
2023-05-19T20:00:28.398Z,94489.22
2023-05-19T20:03:05.113Z,94482.97
2023-05-19T20:05:32.431Z,94489.63
2023-05-19T20:07:59.251Z,94491.19
2023-05-19T20:10:26.392Z,94500.97
2023-05-19T20:12:53.127Z,94495.88
2023-05-19T20:15:19.800Z,94491.97
2023-05-19T20:17:49.355Z,94497.84
2023-05-19T20:20:16.305Z,94493.94
2023-05-19T20:22:45.968Z,94494.31
2023-05-19T20:25:12.865Z,94487.66
2023-05-19T20:27:39.585Z,94494.72
2023-05-19T20:30:07.102Z,94486.91
2023-05-19T20:32:33.978Z,94486.91
2023-05-19T20:35:00.702Z,94490.41
2023-05-19T20:37:27.379Z,94494.31
2023-05-19T20:39:57.095Z,94490.03
2023-05-19T20:42:23.685Z,94490.41
2023-05-19T20:44:52.760Z,94488.84
2023-05-19T20:47:19.918Z,94490.81
2023-05-19T20:49:47.002Z,94489.25
2023-05-19T20:52:15.234Z,94491.22
2023-05-19T20:54:42.131Z,94485.72
2023-05-19T20:57:09.384Z,94480.25
2023-05-19T20:59:36.312Z,94480.63
2023-05-19T21:02:02.877Z,94475.56
2023-05-19T21:04:32.199Z,94465.41
2023-05-19T21:06:59.592Z,94470.47
2023-05-19T21:09:26.272Z,94472.41
2023-05-19T21:11:55.351Z,94469.69
2023-05-19T21:14:22.561Z,94470.06
2023-05-19T21:16:49.928Z,94463.03
2023-05-19T21:19:16.689Z,94463.03
2023-05-19T21:21:44.836Z,94466.19
2023-05-19T21:24:12.913Z,94463.44
2023-05-19T21:26:40.999Z,94462.63
2023-05-19T21:29:08.686Z,94462.28
2023-05-19T21:31:35.982Z,94461.09
2023-05-19T21:34:03.367Z,94458.72
2023-05-19T21:36:30.346Z,94452.88
2023-05-19T21:38:56.966Z,94451.69
2023-05-19T21:41:23.630Z,94448.97
2023-05-19T21:43:50.418Z,94447.41
2023-05-19T21:46:17.096Z,94445.84
2023-05-19T21:48:43.786Z,94443.47
2023-05-19T21:51:10.641Z,94438.41
2023-05-19T21:53:38.046Z,94437.66
2023-05-19T21:56:04.921Z,94433.72
2023-05-19T21:58:31.688Z,94435.69
2023-05-19T22:00:59.377Z,94434.09
2023-05-19T22:03:26.194Z,94432.53
2023-05-19T22:05:54.395Z,94430.19
2023-05-19T22:08:22.277Z,94428.63
2023-05-19T22:10:50.965Z,94425.50
2023-05-19T22:13:18.478Z,94416.13
2023-05-19T22:15:45.132Z,94415.75
2023-05-19T22:18:11.824Z,94418.09
2023-05-19T22:20:38.646Z,94411.06
2023-05-19T22:23:05.503Z,94411.44
2023-05-19T22:25:32.180Z,94404.00
2023-05-19T22:28:01.076Z,94408.72
2023-05-19T22:30:27.972Z,94402.84
2023-05-19T22:32:54.910Z,94399.34
2023-05-19T22:35:21.778Z,94405.97
2023-05-19T22:37:48.407Z,94404.00
2023-05-19T22:40:15.100Z,94402.44
2023-05-19T22:42:41.847Z,94395.81
2023-05-19T22:45:09.243Z,94394.63
2023-05-19T22:47:36.100Z,94396.97
2023-05-19T22:50:03.004Z,94393.06
2023-05-19T22:52:29.740Z,94382.13
2023-05-19T22:54:56.301Z,94383.69
2023-05-19T22:57:22.936Z,94391.13
2023-05-19T22:59:49.537Z,94389.16
2023-05-19T23:02:16.162Z,94385.66
2023-05-19T23:04:42.867Z,94386.84
2023-05-19T23:07:09.477Z,94384.47
2023-05-19T23:09:36.095Z,94383.69
2023-05-19T23:12:02.683Z,94395.03
2023-05-19T23:14:29.287Z,94391.50
2023-05-19T23:16:55.928Z,94383.28
2023-05-19T23:19:22.870Z,94375.88
2023-05-19T23:21:49.602Z,94386.44
2023-05-19T23:24:16.227Z,94377.06
2023-05-19T23:26:45.905Z,94365.72
2023-05-19T23:29:13.235Z,94366.13
2023-05-19T23:31:41.029Z,94369.63
2023-05-19T23:34:08.167Z,94356.75
2023-05-19T23:36:34.840Z,94355.19
2023-05-19T23:39:06.917Z,94360.66
2023-05-19T23:41:33.644Z,94358.31
2023-05-19T23:44:00.324Z,94354.78
2023-05-19T23:46:27.026Z,94349.31
2023-05-19T23:48:53.829Z,94345.41
2023-05-19T23:51:20.770Z,94342.66
2023-05-19T23:53:47.359Z,94338.38
2023-05-19T23:56:14.013Z,94335.22
2023-05-19T23:58:40.857Z,94334.06
